sensor_id;sensor_type;location;lat;lon;timestamp;pressure;altitude;pressure_sealevel;temperature;humidity
51452;BME280;37521;52.020;-1.740;2023-04-26T00:02:22;100170.78;;;1.21;100.00
51452;BME280;37521;52.020;-1.740;2023-04-26T00:04:50;100169.91;;;1.18;100.00
51452;BME280;37521;52.020;-1.740;2023-04-26T00:07:22;100163.00;;;1.14;100.00
51452;BME280;37521;52.020;-1.740;2023-04-26T00:09:52;100163.00;;;1.14;100.00
51452;BME280;37521;52.020;-1.740;2023-04-26T00:12:21;100156.91;;;1.13;100.00
51452;BME280;37521;52.020;-1.740;2023-04-26T00:14:49;100166.50;;;1.09;100.00
51452;BME280;37521;52.020;-1.740;2023-04-26T00:17:17;100156.09;;;1.09;100.00
51452;BME280;37521;52.020;-1.740;2023-04-26T00:19:45;100161.25;;;1.13;100.00
51452;BME280;37521;52.020;-1.740;2023-04-26T00:22:13;100152.59;;;1.12;100.00
51452;BME280;37521;52.020;-1.740;2023-04-26T00:24:42;100152.59;;;1.14;100.00
51452;BME280;37521;52.020;-1.740;2023-04-26T00:27:11;100142.19;;;1.14;100.00
51452;BME280;37521;52.020;-1.740;2023-04-26T00:29:39;100150.88;;;1.06;100.00
51452;BME280;37521;52.020;-1.740;2023-04-26T00:32:08;100157.88;;;1.01;100.00
51452;BME280;37521;52.020;-1.740;2023-04-26T00:34:36;100157.00;;;0.98;100.00
51452;BME280;37521;52.020;-1.740;2023-04-26T00:37:05;100156.16;;;0.96;100.00
51452;BME280;37521;52.020;-1.740;2023-04-26T00:39:33;100142.31;;;0.92;100.00
51452;BME280;37521;52.020;-1.740;2023-04-26T00:42:01;100153.59;;;0.91;100.00
51452;BME280;37521;52.020;-1.740;2023-04-26T00:44:31;100162.25;;;0.92;100.00
51452;BME280;37521;52.020;-1.740;2023-04-26T00:46:59;100150.97;;;0.91;100.00
51452;BME280;37521;52.020;-1.740;2023-04-26T00:49:28;100154.47;;;0.89;100.00
51452;BME280;37521;52.020;-1.740;2023-04-26T00:51:57;100151.00;;;0.85;100.00
51452;BME280;37521;52.020;-1.740;2023-04-26T00:54:25;100159.69;;;0.84;100.00
51452;BME280;37521;52.020;-1.740;2023-04-26T00:56:54;100164.88;;;0.84;100.00
51452;BME280;37521;52.020;-1.740;2023-04-26T00:59:22;100155.38;;;0.77;100.00
51452;BME280;37521;52.020;-1.740;2023-04-26T01:01:52;100151.94;;;0.70;100.00
51452;BME280;37521;52.020;-1.740;2023-04-26T01:04:20;100151.94;;;0.66;100.00
51452;BME280;37521;52.020;-1.740;2023-04-26T01:06:52;100154.56;;;0.66;100.00
51452;BME280;37521;52.020;-1.740;2023-04-26T01:09:21;100152.84;;;0.68;100.00
51452;BME280;37521;52.020;-1.740;2023-04-26T01:11:51;100161.47;;;0.67;100.00
51452;BME280;37521;52.020;-1.740;2023-04-26T01:14:19;100164.06;;;0.71;100.00
51452;BME280;37521;52.020;-1.740;2023-04-26T01:16:48;100165.72;;;0.86;100.00
51452;BME280;37521;52.020;-1.740;2023-04-26T01:19:19;100145.66;;;1.16;100.00
51452;BME280;37521;52.020;-1.740;2023-04-26T01:21:48;100141.16;;;1.39;100.00
51452;BME280;37521;52.020;-1.740;2023-04-26T01:24:18;100137.53;;;1.58;100.00
51452;BME280;37521;52.020;-1.740;2023-04-26T01:26:46;100139.16;;;1.75;100.00
51452;BME280;37521;52.020;-1.740;2023-04-26T01:29:16;100140.78;;;1.88;100.00
51452;BME280;37521;52.020;-1.740;2023-04-26T01:31:45;100145.03;;;1.98;100.00
51452;BME280;37521;52.020;-1.740;2023-04-26T01:34:13;100150.16;;;2.06;100.00
51452;BME280;37521;52.020;-1.740;2023-04-26T01:36:44;100144.91;;;2.10;100.00
51452;BME280;37521;52.020;-1.740;2023-04-26T01:39:13;100138.81;;;2.11;100.00
51452;BME280;37521;52.020;-1.740;2023-04-26T01:41:43;100139.69;;;2.10;100.00
51452;BME280;37521;52.020;-1.740;2023-04-26T01:44:11;100126.72;;;2.07;100.00
51452;BME280;37521;52.020;-1.740;2023-04-26T01:46:39;100124.13;;;2.07;100.00
51452;BME280;37521;52.020;-1.740;2023-04-26T01:49:07;100118.88;;;2.10;100.00
51452;BME280;37521;52.020;-1.740;2023-04-26T01:51:35;100126.63;;;2.13;100.00
51452;BME280;37521;52.020;-1.740;2023-04-26T01:54:06;100129.25;;;2.15;100.00
51452;BME280;37521;52.020;-1.740;2023-04-26T01:56:34;100124.03;;;2.13;100.00
51452;BME280;37521;52.020;-1.740;2023-04-26T01:59:03;100132.78;;;2.09;100.00
51452;BME280;37521;52.020;-1.740;2023-04-26T02:01:32;100124.13;;;2.04;100.00
51452;BME280;37521;52.020;-1.740;2023-04-26T02:04:00;100135.47;;;2.02;100.00
51452;BME280;37521;52.020;-1.740;2023-04-26T02:06:28;100126.75;;;2.03;100.00
51452;BME280;37521;52.020;-1.740;2023-04-26T02:08:57;100118.03;;;2.05;100.00
51452;BME280;37521;52.020;-1.740;2023-04-26T02:11:25;100124.13;;;2.07;100.00
51452;BME280;37521;52.020;-1.740;2023-04-26T02:13:53;100117.09;;;2.12;100.00
51452;BME280;37521;52.020;-1.740;2023-04-26T02:16:23;100117.09;;;2.15;100.00
51452;BME280;37521;52.020;-1.740;2023-04-26T02:18:53;100116.19;;;2.16;100.00
51452;BME280;37521;52.020;-1.740;2023-04-26T02:21:21;100121.38;;;2.18;100.00
51452;BME280;37521;52.020;-1.740;2023-04-26T02:23:49;100122.22;;;2.22;100.00
51452;BME280;37521;52.020;-1.740;2023-04-26T02:26:18;100122.19;;;2.25;100.00
51452;BME280;37521;52.020;-1.740;2023-04-26T02:28:46;100118.69;;;2.26;100.00
51452;BME280;37521;52.020;-1.740;2023-04-26T02:31:14;100125.63;;;2.27;100.00
51452;BME280;37521;52.020;-1.740;2023-04-26T02:33:43;100122.16;;;2.29;100.00
51452;BME280;37521;52.020;-1.740;2023-04-26T02:36:12;100120.41;;;2.30;100.00
51452;BME280;37521;52.020;-1.740;2023-04-26T02:38:40;100115.13;;;2.36;100.00
51452;BME280;37521;52.020;-1.740;2023-04-26T02:41:08;100118.56;;;2.38;100.00
51452;BME280;37521;52.020;-1.740;2023-04-26T02:43:36;100111.59;;;2.40;100.00
51452;BME280;37521;52.020;-1.740;2023-04-26T02:46:06;100113.34;;;2.41;100.00
51452;BME280;37521;52.020;-1.740;2023-04-26T02:48:34;100118.53;;;2.42;100.00
51452;BME280;37521;52.020;-1.740;2023-04-26T02:51:04;100126.34;;;2.39;100.00
51452;BME280;37521;52.020;-1.740;2023-04-26T02:53:33;100131.59;;;2.38;100.00
51452;BME280;37521;52.020;-1.740;2023-04-26T02:56:01;100130.72;;;2.39;100.00
51452;BME280;37521;52.020;-1.740;2023-04-26T02:58:30;100130.72;;;2.39;100.00
51452;BME280;37521;52.020;-1.740;2023-04-26T03:00:58;100133.31;;;2.39;100.00
51452;BME280;37521;52.020;-1.740;2023-04-26T03:03:27;100127.25;;;2.37;100.00
51452;BME280;37521;52.020;-1.740;2023-04-26T03:05:57;100116.84;;;2.37;100.00
51452;BME280;37521;52.020;-1.740;2023-04-26T03:08:27;100125.53;;;2.36;100.00
51452;BME280;37521;52.020;-1.740;2023-04-26T03:10:55;100122.09;;;2.35;100.00
51452;BME280;37521;52.020;-1.740;2023-04-26T03:13:23;100117.75;;;2.33;100.00
51452;BME280;37521;52.020;-1.740;2023-04-26T03:15:53;100122.97;;;2.33;100.00
51452;BME280;37521;52.020;-1.740;2023-04-26T03:18:22;100120.41;;;2.30;100.00
51452;BME280;37521;52.020;-1.740;2023-04-26T03:20:50;100123.03;;;2.27;100.00
51452;BME280;37521;52.020;-1.740;2023-04-26T03:23:19;100124.84;;;2.22;100.00
51452;BME280;37521;52.020;-1.740;2023-04-26T03:25:52;100119.63;;;2.18;100.00
51452;BME280;37521;52.020;-1.740;2023-04-26T03:28:21;100108.41;;;2.13;100.00
51452;BME280;37521;52.020;-1.740;2023-04-26T03:30:49;100106.72;;;2.09;100.00
51452;BME280;37521;52.020;-1.740;2023-04-26T03:33:19;100105.00;;;2.05;100.00
51452;BME280;37521;52.020;-1.740;2023-04-26T03:35:47;100096.38;;;2.00;100.00
51452;BME280;37521;52.020;-1.740;2023-04-26T03:38:15;100106.84;;;1.97;100.00
51452;BME280;37521;52.020;-1.740;2023-04-26T03:40:44;100103.41;;;1.92;100.00
51452;BME280;37521;52.020;-1.740;2023-04-26T03:43:13;100093.06;;;1.87;100.00
51452;BME280;37521;52.020;-1.740;2023-04-26T03:45:45;100094.78;;;1.87;100.00
51452;BME280;37521;52.020;-1.740;2023-04-26T03:48:15;100084.41;;;1.84;100.00
51452;BME280;37521;52.020;-1.740;2023-04-26T03:50:44;100094.84;;;1.82;100.00
51452;BME280;37521;52.020;-1.740;2023-04-26T03:53:12;100094.81;;;1.84;100.00
51452;BME280;37521;52.020;-1.740;2023-04-26T03:55:41;100092.25;;;1.81;100.00
51452;BME280;37521;52.020;-1.740;2023-04-26T03:58:09;100082.69;;;1.80;100.00
51452;BME280;37521;52.020;-1.740;2023-04-26T04:00:39;100085.31;;;1.78;100.00
51452;BME280;37521;52.020;-1.740;2023-04-26T04:03:08;100085.31;;;1.78;100.00
51452;BME280;37521;52.020;-1.740;2023-04-26T04:05:37;100082.72;;;1.81;100.00
51452;BME280;37521;52.020;-1.740;2023-04-26T04:08:05;100084.38;;;1.87;100.00
51452;BME280;37521;52.020;-1.740;2023-04-26T04:10:34;100085.22;;;1.89;100.00
51452;BME280;37521;52.020;-1.740;2023-04-26T04:13:03;100082.59;;;1.92;100.00
51452;BME280;37521;52.020;-1.740;2023-04-26T04:15:32;100072.16;;;1.92;100.00
51452;BME280;37521;52.020;-1.740;2023-04-26T04:18:01;100082.53;;;1.98;100.00
51452;BME280;37521;52.020;-1.740;2023-04-26T04:20:30;100076.44;;;2.01;100.00
51452;BME280;37521;52.020;-1.740;2023-04-26T04:22:59;100072.94;;;2.02;100.00
51452;BME280;37521;52.020;-1.740;2023-04-26T04:25:28;100082.44;;;2.07;100.00
51452;BME280;37521;52.020;-1.740;2023-04-26T04:28:00;100067.69;;;2.08;100.00
51452;BME280;37521;52.020;-1.740;2023-04-26T04:30:28;100071.13;;;2.10;100.00
51452;BME280;37521;52.020;-1.740;2023-04-26T04:32:59;100071.13;;;2.07;100.00
51452;BME280;37521;52.020;-1.740;2023-04-26T04:35:30;100068.53;;;2.08;100.00
51452;BME280;37521;52.020;-1.740;2023-04-26T04:38:02;100063.28;;;2.11;100.00
51452;BME280;37521;52.020;-1.740;2023-04-26T04:40:31;100065.03;;;2.11;100.00
51452;BME280;37521;52.020;-1.740;2023-04-26T04:42:59;100065.91;;;2.10;100.00
51452;BME280;37521;52.020;-1.740;2023-04-26T04:45:29;100065.88;;;2.13;100.00
51452;BME280;37521;52.020;-1.740;2023-04-26T04:47:58;100074.53;;;2.15;100.00
51452;BME280;37521;52.020;-1.740;2023-04-26T04:50:27;100074.50;;;2.18;100.00
51452;BME280;37521;52.020;-1.740;2023-04-26T04:52:56;100076.16;;;2.25;100.00
51452;BME280;37521;52.020;-1.740;2023-04-26T04:55:24;100074.38;;;2.29;100.00
51452;BME280;37521;52.020;-1.740;2023-04-26T04:57:53;100073.44;;;2.33;100.00
51452;BME280;37521;52.020;-1.740;2023-04-26T05:00:22;100081.31;;;2.30;100.00
51452;BME280;37521;52.020;-1.740;2023-04-26T05:02:57;100078.72;;;2.30;100.00
51452;BME280;37521;52.020;-1.740;2023-04-26T05:05:26;100087.44;;;2.26;100.00
51452;BME280;37521;52.020;-1.740;2023-04-26T05:07:55;100085.75;;;2.22;100.00
51452;BME280;37521;52.020;-1.740;2023-04-26T05:10:25;100082.28;;;2.19;100.00
51452;BME280;37521;52.020;-1.740;2023-04-26T05:12:53;100079.66;;;2.23;100.00
51452;BME280;37521;52.020;-1.740;2023-04-26T05:15:21;100082.28;;;2.23;100.00
51452;BME280;37521;52.020;-1.740;2023-04-26T05:17:49;100072.72;;;2.20;100.00
51452;BME280;37521;52.020;-1.740;2023-04-26T05:20:21;100085.75;;;2.22;100.00
51452;BME280;37521;52.020;-1.740;2023-04-26T05:22:49;100087.50;;;2.19;100.00
51452;BME280;37521;52.020;-1.740;2023-04-26T05:25:19;100097.09;;;2.17;100.00
51452;BME280;37521;52.020;-1.740;2023-04-26T05:27:53;100104.06;;;2.15;100.00
51452;BME280;37521;52.020;-1.740;2023-04-26T05:30:30;100100.56;;;2.16;100.00
51452;BME280;37521;52.020;-1.740;2023-04-26T05:33:05;100106.63;;;2.18;100.00
51452;BME280;37521;52.020;-1.740;2023-04-26T05:35:46;100099.63;;;2.21;100.00
51452;BME280;37521;52.020;-1.740;2023-04-26T05:38:14;100102.22;;;2.24;100.00
51452;BME280;37521;52.020;-1.740;2023-04-26T05:40:44;100102.19;;;2.27;100.00
51452;BME280;37521;52.020;-1.740;2023-04-26T05:43:14;100102.19;;;2.28;100.00
51452;BME280;37521;52.020;-1.740;2023-04-26T05:45:49;100101.28;;;2.31;100.00
51452;BME280;37521;52.020;-1.740;2023-04-26T05:48:19;100100.38;;;2.33;100.00
51452;BME280;37521;52.020;-1.740;2023-04-26T05:50:48;100110.75;;;2.38;100.00
51452;BME280;37521;52.020;-1.740;2023-04-26T05:53:16;100116.81;;;2.41;100.00
51452;BME280;37521;52.020;-1.740;2023-04-26T05:55:47;100101.09;;;2.46;100.00
51452;BME280;37521;52.020;-1.740;2023-04-26T05:58:15;100105.41;;;2.50;100.00
51452;BME280;37521;52.020;-1.740;2023-04-26T06:00:44;100099.31;;;2.51;100.00
51452;BME280;37521;52.020;-1.740;2023-04-26T06:03:13;100103.59;;;2.54;100.00
51452;BME280;37521;52.020;-1.740;2023-04-26T06:05:42;100098.31;;;2.61;100.00
51452;BME280;37521;52.020;-1.740;2023-04-26T06:08:10;100096.50;;;2.66;100.00
51452;BME280;37521;52.020;-1.740;2023-04-26T06:10:39;100098.19;;;2.70;100.00
51452;BME280;37521;52.020;-1.740;2023-04-26T06:13:08;100098.13;;;2.73;100.00
51452;BME280;37521;52.020;-1.740;2023-04-26T06:15:37;100099.00;;;2.76;100.00
51452;BME280;37521;52.020;-1.740;2023-04-26T06:18:05;100096.31;;;2.80;100.00
51452;BME280;37521;52.020;-1.740;2023-04-26T06:20:33;100102.31;;;2.87;100.00
51452;BME280;37521;52.020;-1.740;2023-04-26T06:23:05;100107.50;;;2.90;100.00
51452;BME280;37521;52.020;-1.740;2023-04-26T06:25:33;100108.34;;;2.90;100.00
51452;BME280;37521;52.020;-1.740;2023-04-26T06:28:03;100103.09;;;2.93;100.00
51452;BME280;37521;52.020;-1.740;2023-04-26T06:30:33;100113.44;;;3.01;100.00
51452;BME280;37521;52.020;-1.740;2023-04-26T06:33:01;100104.66;;;3.05;100.00
51452;BME280;37521;52.020;-1.740;2023-04-26T06:35:31;100108.97;;;3.09;100.00
51452;BME280;37521;52.020;-1.740;2023-04-26T06:38:01;100116.72;;;3.15;100.00
51452;BME280;37521;52.020;-1.740;2023-04-26T06:40:29;100108.81;;;3.21;100.00
51452;BME280;37521;52.020;-1.740;2023-04-26T06:42:57;100110.47;;;3.25;100.00
51452;BME280;37521;52.020;-1.740;2023-04-26T06:45:45;100114.69;;;3.33;100.00
51452;BME280;37521;52.020;-1.740;2023-04-26T06:48:13;100111.19;;;3.35;100.00
51452;BME280;37521;52.020;-1.740;2023-04-26T06:50:44;100109.38;;;3.39;100.00
51452;BME280;37521;52.020;-1.740;2023-04-26T06:53:12;100114.53;;;3.43;100.00
51452;BME280;37521;52.020;-1.740;2023-04-26T06:55:40;100108.31;;;3.52;100.00
51452;BME280;37521;52.020;-1.740;2023-04-26T06:58:09;100106.56;;;3.52;100.00
51452;BME280;37521;52.020;-1.740;2023-04-26T07:00:37;100102.19;;;3.53;100.00
51452;BME280;37521;52.020;-1.740;2023-04-26T07:03:06;100104.72;;;3.59;100.00
51452;BME280;37521;52.020;-1.740;2023-04-26T07:05:35;100090.72;;;3.63;100.00
51452;BME280;37521;52.020;-1.740;2023-04-26T07:08:03;100093.25;;;3.68;100.00
51452;BME280;37521;52.020;-1.740;2023-04-26T07:10:31;100101.06;;;3.69;100.00
51452;BME280;37521;52.020;-1.740;2023-04-26T07:13:00;100102.78;;;3.70;100.00
51452;BME280;37521;52.020;-1.740;2023-04-26T07:15:28;100105.34;;;3.73;100.00
51452;BME280;37521;52.020;-1.740;2023-04-26T07:17:57;100105.31;;;3.76;100.00
51452;BME280;37521;52.020;-1.740;2023-04-26T07:20:26;100106.09;;;3.81;100.00
51452;BME280;37521;52.020;-1.740;2023-04-26T07:22:55;100104.25;;;3.87;100.00
51452;BME280;37521;52.020;-1.740;2023-04-26T07:25:23;100111.06;;;3.94;100.00
51452;BME280;37521;52.020;-1.740;2023-04-26T07:27:52;100107.53;;;3.98;100.00
51452;BME280;37521;52.020;-1.740;2023-04-26T07:30:20;100100.41;;;4.06;100.00
51452;BME280;37521;52.020;-1.740;2023-04-26T07:32:48;100104.66;;;4.12;100.00
51452;BME280;37521;52.020;-1.740;2023-04-26T07:35:16;100107.09;;;4.21;100.00
51452;BME280;37521;52.020;-1.740;2023-04-26T07:37:46;100102.66;;;4.26;100.00
51452;BME280;37521;52.020;-1.740;2023-04-26T07:40:14;100107.72;;;4.33;100.00
51452;BME280;37521;52.020;-1.740;2023-04-26T07:42:42;100105.00;;;4.40;100.00
51452;BME280;37521;52.020;-1.740;2023-04-26T07:45:11;100105.03;;;4.38;100.00
51452;BME280;37521;52.020;-1.740;2023-04-26T07:47:40;100106.72;;;4.41;100.00
51452;BME280;37521;52.020;-1.740;2023-04-26T07:50:09;100103.97;;;4.48;100.00
51452;BME280;37521;52.020;-1.740;2023-04-26T07:52:37;100110.06;;;4.49;100.00
51452;BME280;37521;52.020;-1.740;2023-04-26T07:55:07;100105.50;;;4.58;100.00
51452;BME280;37521;52.020;-1.740;2023-04-26T07:57:37;100111.66;;;4.56;100.00
51452;BME280;37521;52.020;-1.740;2023-04-26T08:00:06;100111.63;;;4.57;100.00
51452;BME280;37521;52.020;-1.740;2023-04-26T08:02:38;100111.53;;;4.62;100.00
51452;BME280;37521;52.020;-1.740;2023-04-26T08:05:11;100108.81;;;4.68;100.00
51452;BME280;37521;52.020;-1.740;2023-04-26T08:07:40;100105.91;;;4.80;100.00
51452;BME280;37521;52.020;-1.740;2023-04-26T08:10:10;100107.63;;;4.81;100.00
51452;BME280;37521;52.020;-1.740;2023-04-26T08:12:39;100110.28;;;4.80;100.00
51452;BME280;37521;52.020;-1.740;2023-04-26T08:15:08;100098.06;;;4.80;100.00
51452;BME280;37521;52.020;-1.740;2023-04-26T08:17:37;100077.97;;;4.82;100.00
51452;BME280;37521;52.020;-1.740;2023-04-26T08:20:07;100078.53;;;4.97;100.00
51452;BME280;37521;52.020;-1.740;2023-04-26T08:22:36;100090.50;;;5.08;100.00
51452;BME280;37521;52.020;-1.740;2023-04-26T08:25:05;100080.44;;;5.27;100.00
51452;BME280;37521;52.020;-1.740;2023-04-26T08:27:35;100084.72;;;5.31;100.00
51452;BME280;37521;52.020;-1.740;2023-04-26T08:30:03;100094.91;;;5.43;100.00
51452;BME280;37521;52.020;-1.740;2023-04-26T08:32:31;100096.56;;;5.46;100.00
51452;BME280;37521;52.020;-1.740;2023-04-26T08:35:01;100094.00;;;5.44;100.00
51452;BME280;37521;52.020;-1.740;2023-04-26T08:37:29;100097.22;;;5.56;100.00
51452;BME280;37521;52.020;-1.740;2023-04-26T08:39:57;100088.16;;;5.69;100.00
51452;BME280;37521;52.020;-1.740;2023-04-26T08:42:27;100074.72;;;5.81;100.00
51452;BME280;37521;52.020;-1.740;2023-04-26T08:44:59;100083.16;;;5.94;100.00
51452;BME280;37521;52.020;-1.740;2023-04-26T08:47:32;100087.22;;;6.06;100.00
51452;BME280;37521;52.020;-1.740;2023-04-26T08:50:05;100081.03;;;6.10;100.00
51452;BME280;37521;52.020;-1.740;2023-04-26T08:52:34;100084.44;;;6.12;100.00
51452;BME280;37521;52.020;-1.740;2023-04-26T08:55:04;100083.53;;;6.13;100.00
51452;BME280;37521;52.020;-1.740;2023-04-26T08:57:33;100085.84;;;6.25;100.00
51452;BME280;37521;52.020;-1.740;2023-04-26T09:00:04;100081.16;;;6.36;100.00
51452;BME280;37521;52.020;-1.740;2023-04-26T09:02:35;100087.91;;;6.45;100.00
51452;BME280;37521;52.020;-1.740;2023-04-26T09:05:06;100089.56;;;6.47;100.00
51452;BME280;37521;52.020;-1.740;2023-04-26T09:07:39;100086.50;;;6.64;100.00
51452;BME280;37521;52.020;-1.740;2023-04-26T09:10:08;100086.16;;;6.75;100.00
51452;BME280;37521;52.020;-1.740;2023-04-26T09:12:37;100083.47;;;6.78;100.00
51452;BME280;37521;52.020;-1.740;2023-04-26T09:15:08;100083.34;;;6.81;100.00
51452;BME280;37521;52.020;-1.740;2023-04-26T09:17:38;100083.22;;;6.86;100.00
51452;BME280;37521;52.020;-1.740;2023-04-26T09:20:21;100088.34;;;6.90;100.00
51452;BME280;37521;52.020;-1.740;2023-04-26T09:22:51;100083.09;;;6.90;100.00
51452;BME280;37521;52.020;-1.740;2023-04-26T09:25:27;100085.66;;;6.92;100.00
51452;BME280;37521;52.020;-1.740;2023-04-26T09:27:55;100086.22;;;7.03;100.00
51452;BME280;37521;52.020;-1.740;2023-04-26T09:30:26;100087.31;;;7.24;100.00
51452;BME280;37521;52.020;-1.740;2023-04-26T09:32:55;100081.56;;;7.39;100.00
51452;BME280;37521;52.020;-1.740;2023-04-26T09:35:28;100083.22;;;7.42;95.70
51452;BME280;37521;52.020;-1.740;2023-04-26T09:37:58;100082.22;;;7.46;100.00
51452;BME280;37521;52.020;-1.740;2023-04-26T09:40:39;100079.16;;;7.59;100.00
51452;BME280;37521;52.020;-1.740;2023-04-26T09:43:09;100088.34;;;7.73;100.00
51452;BME280;37521;52.020;-1.740;2023-04-26T09:45:45;100087.59;;;7.94;100.00
51452;BME280;37521;52.020;-1.740;2023-04-26T09:48:16;100079.50;;;8.00;100.00
51452;BME280;37521;52.020;-1.740;2023-04-26T09:50:46;100081.94;;;8.06;99.83
51452;BME280;37521;52.020;-1.740;2023-04-26T09:53:26;100070.63;;;8.04;99.05
51452;BME280;37521;52.020;-1.740;2023-04-26T09:55:54;100068.44;;;8.15;100.00
51452;BME280;37521;52.020;-1.740;2023-04-26T09:58:23;100064.19;;;8.38;100.00
51452;BME280;37521;52.020;-1.740;2023-04-26T10:00:53;100070.78;;;8.50;100.00
51452;BME280;37521;52.020;-1.740;2023-04-26T10:03:22;100069.00;;;8.50;100.00
51452;BME280;37521;52.020;-1.740;2023-04-26T10:05:51;100051.78;;;8.65;100.00
51452;BME280;37521;52.020;-1.740;2023-04-26T10:08:19;100068.25;;;8.46;100.00
51452;BME280;37521;52.020;-1.740;2023-04-26T10:10:48;100055.97;;;8.70;100.00
51452;BME280;37521;52.020;-1.740;2023-04-26T10:13:18;100053.66;;;8.85;99.30
51452;BME280;37521;52.020;-1.740;2023-04-26T10:15:47;100043.34;;;8.79;93.79
51452;BME280;37521;52.020;-1.740;2023-04-26T10:18:17;100048.56;;;9.02;100.00
51452;BME280;37521;52.020;-1.740;2023-04-26T10:20:47;100046.69;;;8.84;99.93
51452;BME280;37521;52.020;-1.740;2023-04-26T10:23:20;100039.09;;;8.76;100.00
51452;BME280;37521;52.020;-1.740;2023-04-26T10:25:51;100040.63;;;9.25;95.68
51452;BME280;37521;52.020;-1.740;2023-04-26T10:32:03;100032.25;;;9.58;91.31
51452;BME280;37521;52.020;-1.740;2023-04-26T10:34:34;100026.53;;;9.69;80.76
51452;BME280;37521;52.020;-1.740;2023-04-26T10:37:06;100029.50;;;9.81;88.04
51452;BME280;37521;52.020;-1.740;2023-04-26T10:39:35;100021.47;;;9.85;84.69
51452;BME280;37521;52.020;-1.740;2023-04-26T10:42:19;100027.66;;;9.63;80.58
51452;BME280;37521;52.020;-1.740;2023-04-26T10:44:52;100036.59;;;9.59;83.95
51452;BME280;37521;52.020;-1.740;2023-04-26T10:47:22;100022.25;;;9.87;93.08
51452;BME280;37521;52.020;-1.740;2023-04-26T10:50:00;100024.41;;;10.18;93.39
51452;BME280;37521;52.020;-1.740;2023-04-26T10:52:32;100012.84;;;10.20;87.13
51452;BME280;37521;52.020;-1.740;2023-04-26T10:55:00;100022.91;;;9.92;90.83
51452;BME280;37521;52.020;-1.740;2023-04-26T10:57:46;100018.41;;;9.73;83.83
51452;BME280;37521;52.020;-1.740;2023-04-26T11:00:20;100019.09;;;9.58;96.46
51452;BME280;37521;52.020;-1.740;2023-04-26T11:02:57;100023.88;;;9.48;86.03
51452;BME280;37521;52.020;-1.740;2023-04-26T11:05:51;100025.34;;;9.34;89.56
51452;BME280;37521;52.020;-1.740;2023-04-26T11:08:25;100028.06;;;9.32;99.14
51452;BME280;37521;52.020;-1.740;2023-04-26T11:10:59;100015.63;;;9.14;87.69
51452;BME280;37521;52.020;-1.740;2023-04-26T11:13:34;100022.13;;;8.83;84.53
51452;BME280;37521;52.020;-1.740;2023-04-26T11:16:03;100015.09;;;8.60;93.42
51452;BME280;37521;52.020;-1.740;2023-04-26T11:18:32;100027.41;;;8.35;97.68
51452;BME280;37521;52.020;-1.740;2023-04-26T11:21:03;100013.22;;;8.40;100.00
51452;BME280;37521;52.020;-1.740;2023-04-26T11:23:32;100019.28;;;8.42;100.00
51452;BME280;37521;52.020;-1.740;2023-04-26T11:26:02;100016.59;;;8.44;100.00
51452;BME280;37521;52.020;-1.740;2023-04-26T11:28:31;100016.91;;;8.35;100.00
51452;BME280;37521;52.020;-1.740;2023-04-26T11:31:00;100028.63;;;8.26;100.00
51452;BME280;37521;52.020;-1.740;2023-04-26T11:33:30;100018.25;;;8.46;100.00
51452;BME280;37521;52.020;-1.740;2023-04-26T11:36:01;100011.59;;;8.60;100.00
51452;BME280;37521;52.020;-1.740;2023-04-26T11:38:30;100020.13;;;8.90;99.85
51452;BME280;37521;52.020;-1.740;2023-04-26T11:40:59;100022.03;;;9.28;100.00
51452;BME280;37521;52.020;-1.740;2023-04-26T11:43:32;100019.25;;;9.53;100.00
51452;BME280;37521;52.020;-1.740;2023-04-26T11:46:01;100011.97;;;9.80;100.00
51452;BME280;37521;52.020;-1.740;2023-04-26T11:48:31;100004.28;;;10.15;96.77
51452;BME280;37521;52.020;-1.740;2023-04-26T11:51:03;100012.53;;;10.07;88.01
51452;BME280;37521;52.020;-1.740;2023-04-26T11:53:34;100005.44;;;9.89;91.19
51452;BME280;37521;52.020;-1.740;2023-04-26T11:56:04;100008.53;;;9.99;97.50
51452;BME280;37521;52.020;-1.740;2023-04-26T11:58:32;99999.00;;;10.15;100.00
51452;BME280;37521;52.020;-1.740;2023-04-26T12:01:01;100011.28;;;9.55;89.82
51452;BME280;37521;52.020;-1.740;2023-04-26T12:03:30;100008.09;;;9.26;96.46
51452;BME280;37521;52.020;-1.740;2023-04-26T12:05:59;100002.75;;;9.70;100.00
51452;BME280;37521;52.020;-1.740;2023-04-26T12:08:31;100003.53;;;9.93;97.88
51452;BME280;37521;52.020;-1.740;2023-04-26T12:11:00;100006.81;;;9.57;95.64
51452;BME280;37521;52.020;-1.740;2023-04-26T12:13:29;100004.81;;;9.42;98.14
51452;BME280;37521;52.020;-1.740;2023-04-26T12:15:58;100015.88;;;9.30;100.00
51452;BME280;37521;52.020;-1.740;2023-04-26T12:18:29;100009.06;;;9.02;100.00
51452;BME280;37521;52.020;-1.740;2023-04-26T12:20:59;100012.91;;;8.71;100.00
51452;BME280;37521;52.020;-1.740;2023-04-26T12:23:36;100011.13;;;8.50;100.00
51452;BME280;37521;52.020;-1.740;2023-04-26T12:26:06;100014.31;;;8.33;100.00
51452;BME280;37521;52.020;-1.740;2023-04-26T12:28:37;100026.91;;;8.25;100.00
51452;BME280;37521;52.020;-1.740;2023-04-26T12:31:05;100018.44;;;8.17;100.00
51452;BME280;37521;52.020;-1.740;2023-04-26T12:33:34;100021.56;;;8.03;100.00
51452;BME280;37521;52.020;-1.740;2023-04-26T12:36:06;100023.59;;;7.95;100.00
51452;BME280;37521;52.020;-1.740;2023-04-26T12:38:36;100022.09;;;7.88;100.00
51452;BME280;37521;52.020;-1.740;2023-04-26T12:41:04;100024.06;;;7.83;100.00
51452;BME280;37521;52.020;-1.740;2023-04-26T12:43:33;100026.63;;;7.84;100.00
51452;BME280;37521;52.020;-1.740;2023-04-26T12:46:01;100029.81;;;7.92;100.00
51452;BME280;37521;52.020;-1.740;2023-04-26T12:48:29;100018.53;;;7.89;100.00
51452;BME280;37521;52.020;-1.740;2023-04-26T12:50:57;100029.94;;;7.89;100.00
51452;BME280;37521;52.020;-1.740;2023-04-26T12:53:26;100031.03;;;7.84;100.00
51452;BME280;37521;52.020;-1.740;2023-04-26T12:55:55;100029.78;;;7.69;100.00
51452;BME280;37521;52.020;-1.740;2023-04-26T12:58:23;100035.28;;;7.61;100.00